createdAt,value
2022-09-06T00:00:03.507Z,88.70
2022-09-06T00:00:13.512Z,88.70
2022-09-06T00:00:23.579Z,88.75
2022-09-06T00:00:33.538Z,88.50
2022-09-06T00:00:43.516Z,88.40
2022-09-06T00:00:53.517Z,88.20
2022-09-06T00:01:03.546Z,88.24
2022-09-06T00:01:13.509Z,88.00
2022-09-06T00:01:23.599Z,87.80
2022-09-06T00:01:33.505Z,87.90
2022-09-06T00:01:43.546Z,87.90
2022-09-06T00:01:53.521Z,88.04
2022-09-06T00:02:03.498Z,88.24
2022-09-06T00:02:13.523Z,88.20
2022-09-06T00:02:23.561Z,88.10
2022-09-06T00:02:33.539Z,88.14
2022-09-06T00:02:43.653Z,87.84
2022-09-06T00:02:53.630Z,87.84
2022-09-06T00:03:04.354Z,87.90
2022-09-06T00:03:13.560Z,87.80
2022-09-06T00:03:23.496Z,87.90
2022-09-06T00:03:33.631Z,87.84
2022-09-06T00:03:43.613Z,87.70
2022-09-06T00:03:53.536Z,87.70
2022-09-06T00:04:03.547Z,87.70
2022-09-06T00:04:15.523Z,87.90
2022-09-06T00:04:23.582Z,88.00
2022-09-06T00:04:33.615Z,88.00
2022-09-06T00:04:43.509Z,88.00
2022-09-06T00:04:53.490Z,88.00
2022-09-06T00:05:03.494Z,88.10
2022-09-06T00:05:13.554Z,88.06
2022-09-06T00:05:23.488Z,87.90
2022-09-06T00:05:33.503Z,87.74
2022-09-06T00:05:43.504Z,87.70
2022-09-06T00:05:53.494Z,87.80
2022-09-06T00:06:03.529Z,87.84
2022-09-06T00:06:14.335Z,88.04
2022-09-06T00:06:23.476Z,88.00
2022-09-06T00:06:33.488Z,88.24
2022-09-06T00:06:43.484Z,88.20
2022-09-06T00:06:53.495Z,88.24
2022-09-06T00:07:03.490Z,88.30
2022-09-06T00:07:13.602Z,88.20
2022-09-06T00:07:23.520Z,88.34
2022-09-06T00:07:33.486Z,87.90
2022-09-06T00:07:43.471Z,87.60
2022-09-06T00:07:53.475Z,87.40
2022-09-06T00:08:03.492Z,87.34
2022-09-06T00:08:13.472Z,87.43
2022-09-06T00:08:23.546Z,87.49
2022-09-06T00:08:33.497Z,87.49
2022-09-06T00:08:44.358Z,87.60
2022-09-06T00:08:53.470Z,87.70
2022-09-06T00:09:03.480Z,87.84
2022-09-06T00:09:13.480Z,87.80
2022-09-06T00:09:23.474Z,87.70
2022-09-06T00:09:33.482Z,87.74
2022-09-06T00:09:43.462Z,87.63
2022-09-06T00:09:53.476Z,87.54
2022-09-06T00:10:03.472Z,87.49
2022-09-06T00:10:13.470Z,87.34
2022-09-06T00:10:23.472Z,87.34
2022-09-06T00:10:34.348Z,87.29
2022-09-06T00:10:43.472Z,87.40
2022-09-06T00:10:56.774Z,87.43
2022-09-06T00:11:03.458Z,87.43
2022-09-06T00:11:13.459Z,87.49
2022-09-06T00:11:23.460Z,87.54
2022-09-06T00:11:33.521Z,87.54
2022-09-06T00:11:43.455Z,87.49
2022-09-06T00:11:53.540Z,87.54
2022-09-06T00:12:03.461Z,87.63
2022-09-06T00:12:13.463Z,87.70
2022-09-06T00:12:23.457Z,88.00
2022-09-06T00:12:33.469Z,88.10
2022-09-06T00:12:43.461Z,88.00
2022-09-06T00:12:53.553Z,87.34
2022-09-06T00:13:03.469Z,86.89
2022-09-06T00:13:13.466Z,86.73
2022-09-06T00:13:23.475Z,86.58
2022-09-06T00:13:34.352Z,86.58
2022-09-06T00:13:43.446Z,86.49
2022-09-06T00:13:53.499Z,86.63
2022-09-06T00:14:03.446Z,86.58
2022-09-06T00:14:14.473Z,86.58
2022-09-06T00:14:23.545Z,86.73
2022-09-06T00:14:33.458Z,86.79
2022-09-06T00:14:43.516Z,86.89
2022-09-06T00:14:53.443Z,86.99
2022-09-06T00:15:03.444Z,87.19
2022-09-06T00:15:13.472Z,87.19
2022-09-06T00:15:23.456Z,87.34
2022-09-06T00:15:33.589Z,87.19
2022-09-06T00:15:43.556Z,87.19
2022-09-06T00:15:53.498Z,87.23
2022-09-06T00:16:03.497Z,87.29
2022-09-06T00:16:13.549Z,87.49
2022-09-06T00:16:25.379Z,87.60
2022-09-06T00:16:33.449Z,87.80
2022-09-06T00:16:43.443Z,87.80
2022-09-06T00:16:53.434Z,87.80
2022-09-06T00:17:03.435Z,87.80
2022-09-06T00:17:13.433Z,88.00
2022-09-06T00:17:23.431Z,87.90
2022-09-06T00:17:33.445Z,87.90
2022-09-06T00:17:43.473Z,87.80
2022-09-06T00:17:54.400Z,87.70
2022-09-06T00:18:03.441Z,87.70
2022-09-06T00:18:13.439Z,87.60
2022-09-06T00:18:23.511Z,87.70
2022-09-06T00:18:33.444Z,87.60
2022-09-06T00:18:43.479Z,87.70
2022-09-06T00:18:53.430Z,87.70
2022-09-06T00:19:03.496Z,87.80
2022-09-06T00:19:13.427Z,87.74
2022-09-06T00:19:23.436Z,87.70
2022-09-06T00:19:33.430Z,87.70
2022-09-06T00:19:43.429Z,87.80
2022-09-06T00:19:53.481Z,87.74
2022-09-06T00:20:03.419Z,87.84
2022-09-06T00:20:14.340Z,87.70
2022-09-06T00:20:23.427Z,87.80
2022-09-06T00:20:33.425Z,87.60
2022-09-06T00:20:43.415Z,87.60
2022-09-06T00:20:53.426Z,87.55
2022-09-06T00:21:04.350Z,87.70
2022-09-06T00:21:13.422Z,87.60
2022-09-06T00:21:23.420Z,87.70
2022-09-06T00:21:33.419Z,87.60
2022-09-06T00:21:43.559Z,87.49
2022-09-06T00:21:53.433Z,87.49
2022-09-06T00:22:03.409Z,87.40
2022-09-06T00:22:13.430Z,87.29
2022-09-06T00:22:23.416Z,87.29
2022-09-06T00:22:33.428Z,87.40
2022-09-06T00:22:43.428Z,87.29
2022-09-06T00:22:53.433Z,87.25
2022-09-06T00:23:04.371Z,87.29
2022-09-06T00:23:13.430Z,87.09
2022-09-06T00:23:23.405Z,86.99
2022-09-06T00:23:33.409Z,86.89
2022-09-06T00:23:43.410Z,86.89
2022-09-06T00:23:53.428Z,86.89
2022-09-06T00:24:03.456Z,86.89
2022-09-06T00:24:13.462Z,86.89
2022-09-06T00:24:23.416Z,86.99
2022-09-06T00:24:33.408Z,87.09
2022-09-06T00:24:43.425Z,87.09
2022-09-06T00:24:53.410Z,87.09
2022-09-06T00:25:03.406Z,87.23
2022-09-06T00:25:13.413Z,87.19
2022-09-06T00:25:23.424Z,87.09
2022-09-06T00:25:33.413Z,87.19
2022-09-06T00:25:43.397Z,87.29
2022-09-06T00:25:53.403Z,87.34
2022-09-06T00:26:04.449Z,87.40
2022-09-06T00:26:13.403Z,87.29
2022-09-06T00:26:23.392Z,87.40
2022-09-06T00:26:33.396Z,87.40
2022-09-06T00:26:43.447Z,87.40
2022-09-06T00:26:53.394Z,87.49
2022-09-06T00:27:03.416Z,87.60
2022-09-06T00:27:14.348Z,87.80
2022-09-06T00:27:23.394Z,87.90
2022-09-06T00:27:33.406Z,87.90
2022-09-06T00:27:43.385Z,87.90
2022-09-06T00:27:53.393Z,88.00
2022-09-06T00:28:04.410Z,88.06
2022-09-06T00:28:14.461Z,88.20
2022-09-06T00:28:23.463Z,88.10
2022-09-06T00:28:33.387Z,88.00
2022-09-06T00:28:43.385Z,87.90
2022-09-06T00:28:53.383Z,87.90
2022-09-06T00:29:03.380Z,87.80
2022-09-06T00:29:13.388Z,88.00
2022-09-06T00:29:23.443Z,88.00
2022-09-06T00:29:33.384Z,87.90
2022-09-06T00:29:43.378Z,87.90
2022-09-06T00:29:53.414Z,87.80
2022-09-06T00:30:03.388Z,87.90
2022-09-06T00:30:14.437Z,87.90
2022-09-06T00:30:23.383Z,88.00
2022-09-06T00:30:33.387Z,88.10
2022-09-06T00:30:43.447Z,87.90
2022-09-06T00:30:53.414Z,88.06
2022-09-06T00:31:03.423Z,88.10
2022-09-06T00:31:13.458Z,88.20
2022-09-06T00:31:24.518Z,88.10
2022-09-06T00:31:33.445Z,87.80
2022-09-06T00:31:43.368Z,87.70
2022-09-06T00:31:53.370Z,87.70
2022-09-06T00:32:03.391Z,87.54
2022-09-06T00:32:13.374Z,87.29
2022-09-06T00:32:23.422Z,87.23
2022-09-06T00:32:33.375Z,87.29
2022-09-06T00:32:43.373Z,87.40
2022-09-06T00:32:53.372Z,87.29
2022-09-06T00:33:03.369Z,87.49
2022-09-06T00:33:13.435Z,87.60
2022-09-06T00:33:23.388Z,87.60
2022-09-06T00:33:33.372Z,87.60
2022-09-06T00:33:43.376Z,87.49
2022-09-06T00:33:53.392Z,87.40
2022-09-06T00:34:03.377Z,87.29
2022-09-06T00:34:13.373Z,87.13
2022-09-06T00:34:26.466Z,86.89
2022-09-06T00:34:34.521Z,86.79
2022-09-06T00:34:43.355Z,86.79
2022-09-06T00:34:53.361Z,86.58
2022-09-06T00:35:03.354Z,86.69
2022-09-06T00:35:13.352Z,86.69
2022-09-06T00:35:23.351Z,86.99
2022-09-06T00:35:33.359Z,87.09
2022-09-06T00:35:43.367Z,87.19
2022-09-06T00:35:53.357Z,87.09
2022-09-06T00:36:03.360Z,87.09
2022-09-06T00:36:13.376Z,86.99
2022-09-06T00:36:24.401Z,86.99
2022-09-06T00:36:33.432Z,86.99
2022-09-06T00:36:43.356Z,86.93
2022-09-06T00:36:53.370Z,86.83
2022-09-06T00:37:03.355Z,86.79
2022-09-06T00:37:13.364Z,86.79
2022-09-06T00:37:23.391Z,86.73
2022-09-06T00:37:33.362Z,86.73
2022-09-06T00:37:43.339Z,86.69
2022-09-06T00:37:53.371Z,86.69
2022-09-06T00:38:03.337Z,86.63
2022-09-06T00:38:13.344Z,86.73
2022-09-06T00:38:23.393Z,86.69
2022-09-06T00:38:33.372Z,86.73
2022-09-06T00:38:43.344Z,86.83
2022-09-06T00:38:53.346Z,86.83
2022-09-06T00:39:03.349Z,86.93
2022-09-06T00:39:13.424Z,86.79
2022-09-06T00:39:23.405Z,86.63
2022-09-06T00:39:33.384Z,86.53
2022-09-06T00:39:43.436Z,86.63
2022-09-06T00:39:53.425Z,86.58
2022-09-06T00:40:03.513Z,86.63
2022-09-06T00:40:13.344Z,86.63
2022-09-06T00:40:23.389Z,86.63
2022-09-06T00:40:33.874Z,86.63
2022-09-06T00:40:43.330Z,86.73
2022-09-06T00:40:53.353Z,86.83
2022-09-06T00:41:03.324Z,86.73
2022-09-06T00:41:13.327Z,86.93
2022-09-06T00:41:23.336Z,86.83
2022-09-06T00:41:33.328Z,86.93
2022-09-06T00:41:43.392Z,87.03
2022-09-06T00:41:53.331Z,87.13
2022-09-06T00:42:03.332Z,87.23
2022-09-06T00:42:13.329Z,87.23
2022-09-06T00:42:23.509Z,87.23
2022-09-06T00:42:33.864Z,87.23
2022-09-06T00:42:43.850Z,87.03
2022-09-06T00:42:53.339Z,86.93
2022-09-06T00:43:03.341Z,86.83
2022-09-06T00:43:13.335Z,86.63
2022-09-06T00:43:23.323Z,86.53
2022-09-06T00:43:33.318Z,86.63
2022-09-06T00:43:43.318Z,86.58
2022-09-06T00:43:53.315Z,86.83
2022-09-06T00:44:03.319Z,86.83
2022-09-06T00:44:13.312Z,87.03
2022-09-06T00:44:23.315Z,87.23
2022-09-06T00:44:33.326Z,87.13
2022-09-06T00:44:43.342Z,87.13
2022-09-06T00:44:53.382Z,87.03
2022-09-06T00:45:03.317Z,87.13
2022-09-06T00:45:13.348Z,87.13
2022-09-06T00:45:23.322Z,87.03
2022-09-06T00:45:33.319Z,87.13
2022-09-06T00:45:43.314Z,87.03
2022-09-06T00:45:53.472Z,87.03
2022-09-06T00:46:03.567Z,86.83
2022-09-06T00:46:13.354Z,86.77
2022-09-06T00:46:23.356Z,86.63
2022-09-06T00:46:33.481Z,86.63
2022-09-06T00:46:43.344Z,86.63
2022-09-06T00:46:53.339Z,86.83
2022-09-06T00:47:03.308Z,86.83
2022-09-06T00:47:13.306Z,86.83
2022-09-06T00:47:23.301Z,86.63
2022-09-06T00:47:33.308Z,86.77
2022-09-06T00:47:43.309Z,86.73
2022-09-06T00:47:53.309Z,86.93
2022-09-06T00:48:03.328Z,86.97
2022-09-06T00:48:13.309Z,86.93
2022-09-06T00:48:23.414Z,86.97
2022-09-06T00:48:33.321Z,86.63
2022-09-06T00:48:43.303Z,86.73
2022-09-06T00:48:53.862Z,86.93
2022-09-06T00:49:03.382Z,86.83
2022-09-06T00:49:13.856Z,86.73
2022-09-06T00:49:23.301Z,86.73
2022-09-06T00:49:33.868Z,86.73
2022-09-06T00:49:43.868Z,86.67
2022-09-06T00:49:53.290Z,86.53
2022-09-06T00:50:03.364Z,86.43
2022-09-06T00:50:13.293Z,86.43
2022-09-06T00:50:23.316Z,86.53
2022-09-06T00:50:33.865Z,86.53
2022-09-06T00:50:43.293Z,86.63
2022-09-06T00:50:53.881Z,86.33
2022-09-06T00:51:03.350Z,86.27
2022-09-06T00:51:13.292Z,86.33
2022-09-06T00:51:23.287Z,86.53
2022-09-06T00:51:33.304Z,86.63
2022-09-06T00:51:43.294Z,86.83
2022-09-06T00:51:53.290Z,86.93
2022-09-06T00:52:03.297Z,86.97
2022-09-06T00:52:13.293Z,86.83
2022-09-06T00:52:23.862Z,86.67
2022-09-06T00:52:33.277Z,86.43
2022-09-06T00:52:43.292Z,86.33
2022-09-06T00:52:53.278Z,86.43
2022-09-06T00:53:03.320Z,86.33
2022-09-06T00:53:13.281Z,86.22
2022-09-06T00:53:23.289Z,86.16
2022-09-06T00:53:33.271Z,86.13
2022-09-06T00:53:43.275Z,86.13
2022-09-06T00:53:53.285Z,86.13
2022-09-06T00:54:03.275Z,86.13
2022-09-06T00:54:13.313Z,86.13
2022-09-06T00:54:23.287Z,85.72
2022-09-06T00:54:33.280Z,85.52
2022-09-06T00:54:43.349Z,85.42
2022-09-06T00:54:53.283Z,85.52
2022-09-06T00:55:03.378Z,85.76
2022-09-06T00:55:13.327Z,86.02
2022-09-06T00:55:23.284Z,86.13
2022-09-06T00:55:33.263Z,86.13
2022-09-06T00:55:43.266Z,85.72
2022-09-06T00:55:53.262Z,85.52
2022-09-06T00:56:03.265Z,85.52
2022-09-06T00:56:13.287Z,85.62
2022-09-06T00:56:23.264Z,85.72
2022-09-06T00:56:33.281Z,85.82
2022-09-06T00:56:43.880Z,85.72
2022-09-06T00:56:53.267Z,85.62
2022-09-06T00:57:03.271Z,85.52
2022-09-06T00:57:13.271Z,85.76
2022-09-06T00:57:23.355Z,85.82
2022-09-06T00:57:33.275Z,86.02
2022-09-06T00:57:43.887Z,86.02
2022-09-06T00:57:53.269Z,85.82
2022-09-06T00:58:03.255Z,85.52
2022-09-06T00:58:13.860Z,85.46
2022-09-06T00:58:23.323Z,85.62
2022-09-06T00:58:33.249Z,85.86
2022-09-06T00:58:43.863Z,85.62
2022-09-06T00:58:53.269Z,85.22
2022-09-06T00:59:03.251Z,84.91
2022-09-06T00:59:13.244Z,84.91
2022-09-06T00:59:23.868Z,84.85
2022-09-06T00:59:33.254Z,84.77
2022-09-06T00:59:43.249Z,84.91
2022-09-06T00:59:53.271Z,85.11
2022-09-06T01:00:03.258Z,85.31
2022-09-06T01:00:13.293Z,85.22
2022-09-06T01:00:23.324Z,85.22
2022-09-06T01:00:33.260Z,85.22
2022-09-06T01:00:43.259Z,85.28
2022-09-06T01:00:53.252Z,85.52
2022-09-06T01:01:03.262Z,85.52
2022-09-06T01:01:13.388Z,85.28
2022-09-06T01:01:23.401Z,85.31
2022-09-06T01:01:33.503Z,85.31
2022-09-06T01:01:43.399Z,84.97
2022-09-06T01:01:53.389Z,84.71
2022-09-06T01:02:03.380Z,84.61
2022-09-06T01:02:13.382Z,84.51
2022-09-06T01:02:23.394Z,84.51
2022-09-06T01:02:33.422Z,84.71
2022-09-06T01:02:43.395Z,84.81
2022-09-06T01:02:53.304Z,85.02
2022-09-06T01:03:03.240Z,84.91
2022-09-06T01:03:13.260Z,84.81
2022-09-06T01:03:23.257Z,84.81
2022-09-06T01:03:33.280Z,84.81
2022-09-06T01:03:43.257Z,84.71
2022-09-06T01:03:53.225Z,84.71
2022-09-06T01:04:03.865Z,84.71
2022-09-06T01:04:13.236Z,84.61
2022-09-06T01:04:23.226Z,84.61
2022-09-06T01:04:33.235Z,84.41
2022-09-06T01:04:43.231Z,84.41
2022-09-06T01:04:53.288Z,84.51
2022-09-06T01:05:03.233Z,84.61
2022-09-06T01:05:13.246Z,84.41
2022-09-06T01:05:23.928Z,84.31
2022-09-06T01:05:33.452Z,84.41
2022-09-06T01:05:43.236Z,84.51
2022-09-06T01:05:54.657Z,84.71
2022-09-06T01:06:03.226Z,84.71
2022-09-06T01:06:13.229Z,84.81
2022-09-06T01:06:23.219Z,84.65
2022-09-06T01:06:33.231Z,84.41
2022-09-06T01:06:43.234Z,84.21
2022-09-06T01:06:53.267Z,84.11
2022-09-06T01:07:03.225Z,83.97
2022-09-06T01:07:13.211Z,84.01
2022-09-06T01:07:23.227Z,83.91
2022-09-06T01:07:33.869Z,84.01
2022-09-06T01:07:43.293Z,84.01
2022-09-06T01:07:53.208Z,84.01
2022-09-06T01:08:03.217Z,84.01
2022-09-06T01:08:13.207Z,84.01
2022-09-06T01:08:23.349Z,84.07
2022-09-06T01:08:33.210Z,84.21
2022-09-06T01:08:43.213Z,83.97
2022-09-06T01:08:53.226Z,83.91
2022-09-06T01:09:03.216Z,83.91
2022-09-06T01:09:13.215Z,83.80
2022-09-06T01:09:23.235Z,83.70
2022-09-06T01:09:33.221Z,83.70
2022-09-06T01:09:43.225Z,83.80
2022-09-06T01:09:53.199Z,83.91
2022-09-06T01:10:03.374Z,84.01
2022-09-06T01:10:13.211Z,84.11
2022-09-06T01:10:23.264Z,84.11
2022-09-06T01:10:33.206Z,83.91
2022-09-06T01:10:43.449Z,83.70
2022-09-06T01:10:53.208Z,83.80
2022-09-06T01:11:03.206Z,83.80
2022-09-06T01:11:13.193Z,83.91
2022-09-06T01:11:23.255Z,83.91
2022-09-06T01:11:33.198Z,83.91
2022-09-06T01:11:43.231Z,84.01
2022-09-06T01:11:53.314Z,83.97
2022-09-06T01:12:03.239Z,84.01
2022-09-06T01:12:13.199Z,83.97
2022-09-06T01:12:23.203Z,83.87
2022-09-06T01:12:33.207Z,83.87
2022-09-06T01:12:43.194Z,83.80
2022-09-06T01:12:53.184Z,83.80
2022-09-06T01:13:03.196Z,83.91
2022-09-06T01:13:13.190Z,83.91
2022-09-06T01:13:23.210Z,83.91
2022-09-06T01:13:33.200Z,83.91
2022-09-06T01:13:43.876Z,84.07
2022-09-06T01:13:53.878Z,84.11
2022-09-06T01:14:03.195Z,84.01
2022-09-06T01:14:13.197Z,84.01
2022-09-06T01:14:23.286Z,84.01
2022-09-06T01:14:33.205Z,84.01
2022-09-06T01:14:43.193Z,83.91
2022-09-06T01:14:53.179Z,84.01
2022-09-06T01:15:03.212Z,84.11
2022-09-06T01:15:13.190Z,84.11
2022-09-06T01:15:23.290Z,83.91
2022-09-06T01:15:33.303Z,83.91
2022-09-06T01:15:43.251Z,84.01
2022-09-06T01:15:53.324Z,83.91
2022-09-06T01:16:03.265Z,83.91
2022-09-06T01:16:13.241Z,83.80
2022-09-06T01:16:23.194Z,83.80
2022-09-06T01:16:33.173Z,84.01
2022-09-06T01:16:43.282Z,84.01
2022-09-06T01:16:53.167Z,84.01
2022-09-06T01:17:03.176Z,83.80
2022-09-06T01:17:13.175Z,83.70
2022-09-06T01:17:23.168Z,83.70
2022-09-06T01:17:33.181Z,83.70
2022-09-06T01:17:43.174Z,83.60
2022-09-06T01:17:53.878Z,83.60
2022-09-06T01:18:03.874Z,83.80
2022-09-06T01:18:13.176Z,83.80
2022-09-06T01:18:23.237Z,83.91
2022-09-06T01:18:33.167Z,83.87
2022-09-06T01:18:43.175Z,83.80
2022-09-06T01:18:53.180Z,84.01
2022-09-06T01:19:03.164Z,84.01
2022-09-06T01:19:13.182Z,83.91
2022-09-06T01:19:23.173Z,83.80
2022-09-06T01:19:33.163Z,83.80
2022-09-06T01:19:43.885Z,83.80
2022-09-06T01:19:53.884Z,83.91
2022-09-06T01:20:03.890Z,83.91
2022-09-06T01:20:13.153Z,84.01
2022-09-06T01:20:23.178Z,83.80
2022-09-06T01:20:33.240Z,83.70
2022-09-06T01:20:43.171Z,83.60
2022-09-06T01:20:53.169Z,83.70
2022-09-06T01:21:03.219Z,83.70
2022-09-06T01:21:13.176Z,83.80
2022-09-06T01:21:23.227Z,83.80
2022-09-06T01:21:33.149Z,83.91
2022-09-06T01:21:43.155Z,83.87
2022-09-06T01:21:53.148Z,83.80
2022-09-06T01:22:03.161Z,83.91
2022-09-06T01:22:13.882Z,83.91
2022-09-06T01:22:23.145Z,83.91
2022-09-06T01:22:33.155Z,84.01
2022-09-06T01:22:43.152Z,84.11
2022-09-06T01:22:53.151Z,83.91
2022-09-06T01:23:03.153Z,83.80
2022-09-06T01:23:13.156Z,83.60
2022-09-06T01:23:25.886Z,83.70
2022-09-06T01:23:33.143Z,83.84
2022-09-06T01:23:43.157Z,83.80
2022-09-06T01:23:53.143Z,83.70
2022-09-06T01:24:03.164Z,83.70
2022-09-06T01:24:13.136Z,83.70
2022-09-06T01:24:23.137Z,83.74
2022-09-06T01:24:33.301Z,83.70
2022-09-06T01:24:43.139Z,83.80
2022-09-06T01:24:53.147Z,83.91
2022-09-06T01:25:03.186Z,83.91
2022-09-06T01:25:13.140Z,83.91
2022-09-06T01:25:23.144Z,83.95
2022-09-06T01:25:33.146Z,83.91
2022-09-06T01:25:43.162Z,83.80
2022-09-06T01:25:53.142Z,83.60
2022-09-06T01:26:03.141Z,83.60
2022-09-06T01:26:13.426Z,83.50
2022-09-06T01:26:23.877Z,83.74
2022-09-06T01:26:33.137Z,83.70
2022-09-06T01:26:43.889Z,83.80
2022-09-06T01:26:53.156Z,83.80
2022-09-06T01:27:03.122Z,83.80
2022-09-06T01:27:13.884Z,83.70
2022-09-06T01:27:23.146Z,83.60
2022-09-06T01:27:33.200Z,83.60
2022-09-06T01:27:43.127Z,83.60
2022-09-06T01:27:53.137Z,83.60
2022-09-06T01:28:03.119Z,83.64
2022-09-06T01:28:13.123Z,83.54
2022-09-06T01:28:23.886Z,83.50
2022-09-06T01:28:33.121Z,83.50
2022-09-06T01:28:43.131Z,83.50
2022-09-06T01:28:53.246Z,83.60
2022-09-06T01:29:03.125Z,83.70
2022-09-06T01:29:13.136Z,83.80
2022-09-06T01:29:23.122Z,83.70
2022-09-06T01:29:33.117Z,83.60
2022-09-06T01:29:43.137Z,83.50
2022-09-06T01:29:53.149Z,83.50
2022-09-06T01:30:03.112Z,83.60
2022-09-06T01:30:13.116Z,83.60
2022-09-06T01:30:23.138Z,83.70
2022-09-06T01:30:33.972Z,83.80
2022-09-06T01:30:43.158Z,83.80
2022-09-06T01:30:53.204Z,83.80
2022-09-06T01:31:03.166Z,83.60
2022-09-06T01:31:13.162Z,83.60
2022-09-06T01:31:23.279Z,83.70
2022-09-06T01:31:33.121Z,83.70
2022-09-06T01:31:43.111Z,83.70
2022-09-06T01:31:53.109Z,83.40
2022-09-06T01:32:03.105Z,83.34
2022-09-06T01:32:13.126Z,83.44
2022-09-06T01:32:23.120Z,83.50
2022-09-06T01:32:33.942Z,83.50
2022-09-06T01:32:43.192Z,83.50
2022-09-06T01:32:53.100Z,83.50
2022-09-06T01:33:03.097Z,83.60
2022-09-06T01:33:13.120Z,83.70
2022-09-06T01:33:23.101Z,83.91
2022-09-06T01:33:33.103Z,84.01
2022-09-06T01:33:43.134Z,84.01
2022-09-06T01:33:53.102Z,83.91
2022-09-06T01:34:03.104Z,83.95
2022-09-06T01:34:13.100Z,83.91
2022-09-06T01:34:23.099Z,83.74
2022-09-06T01:34:33.105Z,83.70
2022-09-06T01:34:43.880Z,83.70
2022-09-06T01:34:53.099Z,83.80
2022-09-06T01:35:03.176Z,83.60
2022-09-06T01:35:13.185Z,83.60
2022-09-06T01:35:23.108Z,83.70
2022-09-06T01:35:33.107Z,83.80
2022-09-06T01:35:43.087Z,83.95
2022-09-06T01:35:53.100Z,84.05
2022-09-06T01:36:03.083Z,84.25
2022-09-06T01:36:13.086Z,84.21
2022-09-06T01:36:23.088Z,84.11
2022-09-06T01:36:33.492Z,84.15
2022-09-06T01:37:06.142Z,84.15
2022-09-06T01:37:09.052Z,83.91
2022-09-06T01:37:11.067Z,83.80
2022-09-06T01:37:13.909Z,83.84
2022-09-06T01:37:23.083Z,83.91
2022-09-06T01:37:33.905Z,83.95
2022-09-06T01:37:43.901Z,83.91
2022-09-06T01:37:53.094Z,83.95
2022-09-06T01:38:03.891Z,83.95
2022-09-06T01:38:13.112Z,83.91
2022-09-06T01:38:23.172Z,84.01
2022-09-06T01:38:33.089Z,84.05
2022-09-06T01:38:43.887Z,84.15
2022-09-06T01:38:53.130Z,84.15
2022-09-06T01:39:03.068Z,84.05
2022-09-06T01:39:13.074Z,84.05
2022-09-06T01:39:23.121Z,84.15
2022-09-06T01:39:33.182Z,84.01
2022-09-06T01:39:43.119Z,83.91
2022-09-06T01:39:53.124Z,83.95
2022-09-06T01:40:03.143Z,84.05
2022-09-06T01:40:13.114Z,83.95
2022-09-06T01:40:23.066Z,84.05
2022-09-06T01:40:33.069Z,84.15
2022-09-06T01:40:43.100Z,84.11
2022-09-06T01:40:53.887Z,84.05
2022-09-06T01:41:03.084Z,84.05
2022-09-06T01:41:13.090Z,83.84
2022-09-06T01:41:23.145Z,83.84
2022-09-06T01:41:33.077Z,83.84
2022-09-06T01:41:43.112Z,83.91
2022-09-06T01:41:53.067Z,83.95
2022-09-06T01:42:03.058Z,84.05
2022-09-06T01:42:13.058Z,84.05
2022-09-06T01:42:23.058Z,84.01
2022-09-06T01:42:33.076Z,83.84
2022-09-06T01:42:43.962Z,83.84
2022-09-06T01:42:53.084Z,83.95
2022-09-06T01:43:04.564Z,84.05
2022-09-06T01:43:13.063Z,84.15
2022-09-06T01:43:23.061Z,84.05
2022-09-06T01:43:33.068Z,84.05
2022-09-06T01:43:43.047Z,84.05
2022-09-06T01:43:53.074Z,84.05
2022-09-06T01:44:03.092Z,84.05
2022-09-06T01:44:13.052Z,84.15
2022-09-06T01:44:23.066Z,84.15
2022-09-06T01:44:33.118Z,84.15
2022-09-06T01:44:43.052Z,84.15
2022-09-06T01:44:53.069Z,84.05
2022-09-06T01:45:03.083Z,83.91
2022-09-06T01:45:13.047Z,83.84
2022-09-06T01:45:23.050Z,83.74
2022-09-06T01:45:33.044Z,83.74
2022-09-06T01:45:43.110Z,83.84
2022-09-06T01:45:53.125Z,83.95
2022-09-06T01:46:03.092Z,83.95
2022-09-06T01:46:13.140Z,84.05
2022-09-06T01:46:23.149Z,84.05
2022-09-06T01:46:33.106Z,84.05
2022-09-06T01:46:43.058Z,84.11
2022-09-06T01:46:53.103Z,84.15
2022-09-06T01:47:03.933Z,84.15
2022-09-06T01:47:13.084Z,84.15
2022-09-06T01:47:23.058Z,84.05
2022-09-06T01:47:33.138Z,84.15
2022-09-06T01:47:43.069Z,84.15
2022-09-06T01:47:53.052Z,84.15
2022-09-06T01:48:03.033Z,84.15
2022-09-06T01:48:13.047Z,84.25
2022-09-06T01:48:23.043Z,84.25
2022-09-06T01:48:33.036Z,84.25
2022-09-06T01:48:43.036Z,84.15
2022-09-06T01:48:53.890Z,84.25
2022-09-06T01:49:03.029Z,84.25
2022-09-06T01:49:14.013Z,84.21
2022-09-06T01:49:23.134Z,84.15
2022-09-06T01:49:33.029Z,84.15
2022-09-06T01:49:43.194Z,84.15
2022-09-06T01:49:53.025Z,84.25
2022-09-06T01:50:03.033Z,84.35
2022-09-06T01:50:13.151Z,84.35
2022-09-06T01:50:23.022Z,84.35
2022-09-06T01:50:33.897Z,84.25
2022-09-06T01:50:43.086Z,84.25
2022-09-06T01:50:53.044Z,84.15
2022-09-06T01:51:03.019Z,84.15
2022-09-06T01:51:13.082Z,84.15
2022-09-06T01:51:23.111Z,84.15
2022-09-06T01:51:33.020Z,84.15
2022-09-06T01:51:43.018Z,84.15
2022-09-06T01:51:53.032Z,84.15
2022-09-06T01:52:03.067Z,84.05
2022-09-06T01:52:13.030Z,84.05
2022-09-06T01:52:23.022Z,84.05
2022-09-06T01:52:33.047Z,83.95
2022-09-06T01:52:43.011Z,84.05
2022-09-06T01:52:53.022Z,84.01
2022-09-06T01:53:03.105Z,84.05
2022-09-06T01:53:13.927Z,84.05
2022-09-06T01:53:23.909Z,84.15
2022-09-06T01:53:33.022Z,84.15
2022-09-06T01:53:43.011Z,84.25
2022-09-06T01:53:53.020Z,84.15
2022-09-06T01:54:03.002Z,84.25
2022-09-06T01:54:13.012Z,84.25
2022-09-06T01:54:23.031Z,84.45
2022-09-06T01:54:33.010Z,84.55
2022-09-06T01:54:43.019Z,84.65
2022-09-06T01:54:53.011Z,84.65
2022-09-06T01:55:03.009Z,84.65
2022-09-06T01:55:13.007Z,84.65
2022-09-06T01:55:23.034Z,84.55
2022-09-06T01:55:33.073Z,84.55
2022-09-06T01:55:43.008Z,84.45
2022-09-06T01:55:53.032Z,84.21
2022-09-06T01:56:02.993Z,84.15
2022-09-06T01:56:13.920Z,84.05
2022-09-06T01:56:22.992Z,84.05
2022-09-06T01:56:32.996Z,83.91
2022-09-06T01:56:43.017Z,83.74
2022-09-06T01:56:52.995Z,83.74
2022-09-06T01:57:02.994Z,83.54
2022-09-06T01:57:13.037Z,83.50
2022-09-06T01:57:22.988Z,83.40
2022-09-06T01:57:33.025Z,83.44
2022-09-06T01:57:42.998Z,83.30
2022-09-06T01:57:52.992Z,83.34
2022-09-06T01:58:02.994Z,83.20
2022-09-06T01:58:13.132Z,83.10
2022-09-06T01:58:23.074Z,83.14
2022-09-06T01:58:32.998Z,83.04
2022-09-06T01:58:43.004Z,83.04
2022-09-06T01:58:52.990Z,82.93
2022-09-06T01:59:03.003Z,82.70
2022-09-06T01:59:13.018Z,82.73
2022-09-06T01:59:22.981Z,82.64
2022-09-06T01:59:33.966Z,82.59
2022-09-06T01:59:43.041Z,82.64
2022-09-06T01:59:52.983Z,82.50
2022-09-06T02:00:03.016Z,82.53
2022-09-06T02:00:13.893Z,82.53
2022-09-06T02:00:22.986Z,82.43
2022-09-06T02:00:33.001Z,82.33
2022-09-06T02:00:42.978Z,82.29
2022-09-06T02:00:52.985Z,82.19
2022-09-06T02:01:03.063Z,82.19
2022-09-06T02:01:13.037Z,82.09
2022-09-06T02:01:23.060Z,82.09
2022-09-06T02:01:33.065Z,82.09
2022-09-06T02:01:43.175Z,81.99
2022-09-06T02:01:53.179Z,82.03
2022-09-06T02:02:03.086Z,81.99
2022-09-06T02:02:13.019Z,81.99
2022-09-06T02:02:23.057Z,81.99
2022-09-06T02:02:33.137Z,81.89
2022-09-06T02:02:43.029Z,81.93
2022-09-06T02:02:53.041Z,81.89
2022-09-06T02:03:02.969Z,81.99
2022-09-06T02:03:13.098Z,82.13
2022-09-06T02:03:22.975Z,82.09
2022-09-06T02:03:32.962Z,82.09
2022-09-06T02:03:42.972Z,82.09
2022-09-06T02:03:53.038Z,82.43
2022-09-06T02:04:02.965Z,82.79
2022-09-06T02:04:12.961Z,83.20
2022-09-06T02:04:23.903Z,83.40
2022-09-06T02:04:32.989Z,83.50
2022-09-06T02:04:43.012Z,83.60
2022-09-06T02:04:53.920Z,83.50
2022-09-06T02:05:02.974Z,83.40
2022-09-06T02:05:12.971Z,83.50
2022-09-06T02:05:22.952Z,83.40
2022-09-06T02:05:32.955Z,83.30
2022-09-06T02:05:42.973Z,83.40
2022-09-06T02:05:54.014Z,83.60
2022-09-06T02:06:03.090Z,83.50
2022-09-06T02:06:12.966Z,83.40
2022-09-06T02:06:22.950Z,83.40
2022-09-06T02:06:32.987Z,83.44
2022-09-06T02:06:42.980Z,83.74
2022-09-06T02:06:52.956Z,83.95
2022-09-06T02:07:02.948Z,84.05
2022-09-06T02:07:12.970Z,84.25
2022-09-06T02:07:22.943Z,84.35
2022-09-06T02:07:33.461Z,84.45
2022-09-06T02:07:42.974Z,84.55
2022-09-06T02:07:53.955Z,84.65
2022-09-06T02:08:03.062Z,84.65
2022-09-06T02:08:12.980Z,84.75
2022-09-06T02:08:23.003Z,84.75
2022-09-06T02:08:33.898Z,84.75
2022-09-06T02:08:42.939Z,84.85